sensor_id;sensor_type;location;lat;lon;timestamp;P1;durP1;ratioP1;P2;durP2;ratioP2
20069;SDS011;10195;50.868;4.382;2024-02-21T00:00:47;25.63;;;9.03;;
20069;SDS011;10195;50.868;4.382;2024-02-21T00:03:13;24.63;;;9.70;;
20069;SDS011;10195;50.868;4.382;2024-02-21T00:05:38;23.37;;;8.97;;
20069;SDS011;10195;50.868;4.382;2024-02-21T00:08:04;24.23;;;8.63;;
20069;SDS011;10195;50.868;4.382;2024-02-21T00:10:30;30.67;;;7.67;;
20069;SDS011;10195;50.868;4.382;2024-02-21T00:12:58;27.27;;;9.50;;
20069;SDS011;10195;50.868;4.382;2024-02-21T00:15:24;25.13;;;8.33;;
20069;SDS011;10195;50.868;4.382;2024-02-21T00:17:50;26.60;;;8.60;;
20069;SDS011;10195;50.868;4.382;2024-02-21T00:20:16;32.70;;;9.67;;
20069;SDS011;10195;50.868;4.382;2024-02-21T00:22:42;31.33;;;9.63;;
20069;SDS011;10195;50.868;4.382;2024-02-21T00:25:11;22.00;;;8.87;;
20069;SDS011;10195;50.868;4.382;2024-02-21T00:27:37;31.63;;;8.60;;
20069;SDS011;10195;50.868;4.382;2024-02-21T00:30:04;26.47;;;8.70;;
20069;SDS011;10195;50.868;4.382;2024-02-21T00:32:30;22.50;;;7.93;;
20069;SDS011;10195;50.868;4.382;2024-02-21T00:34:57;22.07;;;9.33;;
20069;SDS011;10195;50.868;4.382;2024-02-21T00:37:22;22.13;;;7.73;;
20069;SDS011;10195;50.868;4.382;2024-02-21T00:39:48;20.63;;;7.50;;
20069;SDS011;10195;50.868;4.382;2024-02-21T00:42:14;20.47;;;7.30;;
20069;SDS011;10195;50.868;4.382;2024-02-21T00:44:39;24.67;;;8.10;;
20069;SDS011;10195;50.868;4.382;2024-02-21T00:47:05;22.50;;;7.80;;
20069;SDS011;10195;50.868;4.382;2024-02-21T00:49:31;17.23;;;7.30;;
20069;SDS011;10195;50.868;4.382;2024-02-21T00:51:56;20.17;;;7.30;;
20069;SDS011;10195;50.868;4.382;2024-02-21T00:54:22;28.17;;;8.90;;
20069;SDS011;10195;50.868;4.382;2024-02-21T00:56:48;21.30;;;7.90;;
20069;SDS011;10195;50.868;4.382;2024-02-21T00:59:13;19.73;;;7.07;;
20069;SDS011;10195;50.868;4.382;2024-02-21T01:01:39;22.10;;;7.60;;
20069;SDS011;10195;50.868;4.382;2024-02-21T01:04:07;26.80;;;8.07;;
20069;SDS011;10195;50.868;4.382;2024-02-21T01:06:34;19.13;;;7.70;;
20069;SDS011;10195;50.868;4.382;2024-02-21T01:08:59;25.10;;;8.07;;
20069;SDS011;10195;50.868;4.382;2024-02-21T01:11:25;22.73;;;8.07;;
20069;SDS011;10195;50.868;4.382;2024-02-21T01:13:51;16.47;;;6.73;;
20069;SDS011;10195;50.868;4.382;2024-02-21T01:16:16;19.33;;;6.37;;
20069;SDS011;10195;50.868;4.382;2024-02-21T01:18:42;14.07;;;6.63;;
20069;SDS011;10195;50.868;4.382;2024-02-21T01:21:08;24.20;;;7.50;;
20069;SDS011;10195;50.868;4.382;2024-02-21T01:23:35;23.67;;;7.67;;
20069;SDS011;10195;50.868;4.382;2024-02-21T01:26:01;22.77;;;8.20;;
20069;SDS011;10195;50.868;4.382;2024-02-21T01:28:27;21.77;;;8.20;;
20069;SDS011;10195;50.868;4.382;2024-02-21T01:30:53;23.17;;;8.10;;
20069;SDS011;10195;50.868;4.382;2024-02-21T01:33:18;19.47;;;7.77;;
20069;SDS011;10195;50.868;4.382;2024-02-21T01:35:44;20.43;;;8.67;;
20069;SDS011;10195;50.868;4.382;2024-02-21T01:38:10;19.47;;;8.03;;
20069;SDS011;10195;50.868;4.382;2024-02-21T01:40:37;19.57;;;8.83;;
20069;SDS011;10195;50.868;4.382;2024-02-21T01:43:03;21.47;;;8.77;;
20069;SDS011;10195;50.868;4.382;2024-02-21T01:45:29;24.03;;;8.13;;
20069;SDS011;10195;50.868;4.382;2024-02-21T01:47:54;24.93;;;8.90;;
20069;SDS011;10195;50.868;4.382;2024-02-21T01:50:20;25.90;;;9.33;;
20069;SDS011;10195;50.868;4.382;2024-02-21T01:52:48;20.77;;;8.53;;
20069;SDS011;10195;50.868;4.382;2024-02-21T01:55:15;30.63;;;9.23;;
20069;SDS011;10195;50.868;4.382;2024-02-21T01:57:42;22.70;;;8.97;;
20069;SDS011;10195;50.868;4.382;2024-02-21T02:00:11;23.47;;;8.77;;
20069;SDS011;10195;50.868;4.382;2024-02-21T02:02:38;20.97;;;8.33;;
20069;SDS011;10195;50.868;4.382;2024-02-21T02:05:05;24.33;;;9.40;;
20069;SDS011;10195;50.868;4.382;2024-02-21T02:07:32;27.00;;;9.63;;
20069;SDS011;10195;50.868;4.382;2024-02-21T02:09:58;21.97;;;9.37;;
20069;SDS011;10195;50.868;4.382;2024-02-21T02:12:24;32.73;;;9.97;;
20069;SDS011;10195;50.868;4.382;2024-02-21T02:15:00;26.50;;;9.83;;
20069;SDS011;10195;50.868;4.382;2024-02-21T02:17:29;24.00;;;8.80;;
20069;SDS011;10195;50.868;4.382;2024-02-21T02:19:55;23.77;;;9.37;;
20069;SDS011;10195;50.868;4.382;2024-02-21T02:22:28;20.57;;;8.83;;
20069;SDS011;10195;50.868;4.382;2024-02-21T02:24:57;22.13;;;9.60;;
20069;SDS011;10195;50.868;4.382;2024-02-21T02:27:23;28.40;;;9.73;;
20069;SDS011;10195;50.868;4.382;2024-02-21T02:29:49;24.13;;;9.03;;
20069;SDS011;10195;50.868;4.382;2024-02-21T02:32:15;24.27;;;10.23;;
20069;SDS011;10195;50.868;4.382;2024-02-21T02:34:41;22.43;;;9.63;;
20069;SDS011;10195;50.868;4.382;2024-02-21T02:37:06;28.87;;;9.43;;
20069;SDS011;10195;50.868;4.382;2024-02-21T02:39:32;23.13;;;8.60;;
20069;SDS011;10195;50.868;4.382;2024-02-21T02:41:57;25.17;;;9.07;;
20069;SDS011;10195;50.868;4.382;2024-02-21T02:44:23;22.30;;;8.37;;
20069;SDS011;10195;50.868;4.382;2024-02-21T02:46:49;24.30;;;8.80;;
20069;SDS011;10195;50.868;4.382;2024-02-21T02:49:14;22.40;;;9.00;;
20069;SDS011;10195;50.868;4.382;2024-02-21T02:51:43;23.20;;;8.77;;
20069;SDS011;10195;50.868;4.382;2024-02-21T02:54:09;20.53;;;9.17;;
20069;SDS011;10195;50.868;4.382;2024-02-21T02:56:36;19.60;;;9.03;;
20069;SDS011;10195;50.868;4.382;2024-02-21T02:59:01;22.03;;;9.13;;
20069;SDS011;10195;50.868;4.382;2024-02-21T03:01:28;21.97;;;8.90;;
20069;SDS011;10195;50.868;4.382;2024-02-21T03:03:54;28.30;;;9.50;;
20069;SDS011;10195;50.868;4.382;2024-02-21T03:06:19;24.37;;;9.87;;
20069;SDS011;10195;50.868;4.382;2024-02-21T03:08:45;23.17;;;9.43;;
20069;SDS011;10195;50.868;4.382;2024-02-21T03:11:11;21.03;;;8.87;;
20069;SDS011;10195;50.868;4.382;2024-02-21T03:13:37;27.07;;;9.30;;
20069;SDS011;10195;50.868;4.382;2024-02-21T03:16:03;19.73;;;8.30;;
20069;SDS011;10195;50.868;4.382;2024-02-21T03:18:29;21.37;;;8.80;;
20069;SDS011;10195;50.868;4.382;2024-02-21T03:20:54;20.13;;;9.00;;
20069;SDS011;10195;50.868;4.382;2024-02-21T03:23:20;20.23;;;8.40;;
20069;SDS011;10195;50.868;4.382;2024-02-21T03:25:45;20.67;;;9.43;;
20069;SDS011;10195;50.868;4.382;2024-02-21T03:28:11;23.40;;;8.90;;
20069;SDS011;10195;50.868;4.382;2024-02-21T03:30:37;25.63;;;8.80;;
20069;SDS011;10195;50.868;4.382;2024-02-21T03:33:03;24.30;;;9.10;;
20069;SDS011;10195;50.868;4.382;2024-02-21T03:35:29;26.50;;;9.20;;
20069;SDS011;10195;50.868;4.382;2024-02-21T03:37:54;25.47;;;9.07;;
20069;SDS011;10195;50.868;4.382;2024-02-21T03:40:20;21.80;;;9.07;;
20069;SDS011;10195;50.868;4.382;2024-02-21T03:42:46;17.97;;;7.27;;
20069;SDS011;10195;50.868;4.382;2024-02-21T03:45:11;30.90;;;9.00;;
20069;SDS011;10195;50.868;4.382;2024-02-21T03:47:37;25.47;;;9.67;;
20069;SDS011;10195;50.868;4.382;2024-02-21T03:50:03;26.33;;;8.83;;
20069;SDS011;10195;50.868;4.382;2024-02-21T03:52:31;25.77;;;9.00;;
20069;SDS011;10195;50.868;4.382;2024-02-21T03:54:57;22.37;;;9.57;;
20069;SDS011;10195;50.868;4.382;2024-02-21T03:57:22;19.10;;;8.67;;
20069;SDS011;10195;50.868;4.382;2024-02-21T03:59:51;15.33;;;8.80;;
20069;SDS011;10195;50.868;4.382;2024-02-21T04:02:17;27.03;;;9.20;;
20069;SDS011;10195;50.868;4.382;2024-02-21T04:04:43;26.07;;;9.50;;
20069;SDS011;10195;50.868;4.382;2024-02-21T04:07:12;21.57;;;9.17;;
20069;SDS011;10195;50.868;4.382;2024-02-21T04:09:38;26.60;;;8.93;;
20069;SDS011;10195;50.868;4.382;2024-02-21T04:12:04;24.17;;;8.90;;
20069;SDS011;10195;50.868;4.382;2024-02-21T04:14:29;23.73;;;9.50;;
20069;SDS011;10195;50.868;4.382;2024-02-21T04:16:55;17.73;;;7.50;;
20069;SDS011;10195;50.868;4.382;2024-02-21T04:19:21;17.23;;;7.90;;
20069;SDS011;10195;50.868;4.382;2024-02-21T04:21:46;20.07;;;8.47;;
20069;SDS011;10195;50.868;4.382;2024-02-21T04:24:12;26.80;;;8.13;;
20069;SDS011;10195;50.868;4.382;2024-02-21T04:26:38;25.37;;;8.40;;
20069;SDS011;10195;50.868;4.382;2024-02-21T04:29:04;20.97;;;8.27;;
20069;SDS011;10195;50.868;4.382;2024-02-21T04:31:31;20.03;;;8.57;;
20069;SDS011;10195;50.868;4.382;2024-02-21T04:33:57;20.77;;;8.83;;
20069;SDS011;10195;50.868;4.382;2024-02-21T04:36:23;18.40;;;8.83;;
20069;SDS011;10195;50.868;4.382;2024-02-21T04:38:50;25.13;;;9.37;;
20069;SDS011;10195;50.868;4.382;2024-02-21T04:41:15;18.73;;;8.77;;
20069;SDS011;10195;50.868;4.382;2024-02-21T04:43:41;24.37;;;8.30;;
20069;SDS011;10195;50.868;4.382;2024-02-21T04:46:07;23.17;;;8.97;;
20069;SDS011;10195;50.868;4.382;2024-02-21T04:48:32;20.10;;;7.90;;
20069;SDS011;10195;50.868;4.382;2024-02-21T04:50:58;17.60;;;8.93;;
20069;SDS011;10195;50.868;4.382;2024-02-21T04:53:24;18.60;;;8.83;;
20069;SDS011;10195;50.868;4.382;2024-02-21T04:55:49;21.07;;;8.93;;
20069;SDS011;10195;50.868;4.382;2024-02-21T04:58:15;23.83;;;9.13;;
20069;SDS011;10195;50.868;4.382;2024-02-21T05:00:40;18.27;;;8.80;;
20069;SDS011;10195;50.868;4.382;2024-02-21T05:03:09;19.23;;;8.60;;
20069;SDS011;10195;50.868;4.382;2024-02-21T05:05:34;23.67;;;8.50;;
20069;SDS011;10195;50.868;4.382;2024-02-21T05:08:00;18.17;;;8.47;;
20069;SDS011;10195;50.868;4.382;2024-02-21T05:10:26;20.57;;;7.90;;
20069;SDS011;10195;50.868;4.382;2024-02-21T05:12:52;18.37;;;9.13;;
20069;SDS011;10195;50.868;4.382;2024-02-21T05:15:17;18.97;;;8.87;;
20069;SDS011;10195;50.868;4.382;2024-02-21T05:17:43;19.03;;;7.73;;
20069;SDS011;10195;50.868;4.382;2024-02-21T05:20:09;17.43;;;8.60;;
20069;SDS011;10195;50.868;4.382;2024-02-21T05:22:35;17.03;;;8.27;;
20069;SDS011;10195;50.868;4.382;2024-02-21T05:25:01;22.13;;;7.80;;
20069;SDS011;10195;50.868;4.382;2024-02-21T05:27:26;23.90;;;7.93;;
20069;SDS011;10195;50.868;4.382;2024-02-21T05:29:53;18.30;;;7.80;;
20069;SDS011;10195;50.868;4.382;2024-02-21T05:32:19;17.83;;;7.73;;
20069;SDS011;10195;50.868;4.382;2024-02-21T05:34:48;17.77;;;8.17;;
20069;SDS011;10195;50.868;4.382;2024-02-21T05:37:14;22.70;;;8.30;;
20069;SDS011;10195;50.868;4.382;2024-02-21T05:39:40;14.80;;;8.03;;
20069;SDS011;10195;50.868;4.382;2024-02-21T05:42:06;15.27;;;7.40;;
20069;SDS011;10195;50.868;4.382;2024-02-21T05:44:31;16.27;;;7.53;;
20069;SDS011;10195;50.868;4.382;2024-02-21T05:46:57;16.27;;;7.33;;
20069;SDS011;10195;50.868;4.382;2024-02-21T05:49:23;13.13;;;7.43;;
20069;SDS011;10195;50.868;4.382;2024-02-21T05:51:48;17.67;;;7.40;;
20069;SDS011;10195;50.868;4.382;2024-02-21T05:54:14;12.70;;;6.90;;
20069;SDS011;10195;50.868;4.382;2024-02-21T05:56:43;16.53;;;7.07;;
20069;SDS011;10195;50.868;4.382;2024-02-21T05:59:10;17.57;;;6.97;;
20069;SDS011;10195;50.868;4.382;2024-02-21T06:01:35;13.40;;;6.57;;
20069;SDS011;10195;50.868;4.382;2024-02-21T06:04:01;12.80;;;7.07;;
20069;SDS011;10195;50.868;4.382;2024-02-21T06:06:29;16.83;;;6.77;;
20069;SDS011;10195;50.868;4.382;2024-02-21T06:08:55;13.67;;;7.53;;
20069;SDS011;10195;50.868;4.382;2024-02-21T06:11:22;16.33;;;6.93;;
20069;SDS011;10195;50.868;4.382;2024-02-21T06:13:47;10.00;;;6.03;;
20069;SDS011;10195;50.868;4.382;2024-02-21T06:16:13;13.90;;;6.60;;
20069;SDS011;10195;50.868;4.382;2024-02-21T06:18:39;13.50;;;6.00;;
20069;SDS011;10195;50.868;4.382;2024-02-21T06:21:04;11.90;;;5.87;;
20069;SDS011;10195;50.868;4.382;2024-02-21T06:23:30;10.80;;;5.23;;
20069;SDS011;10195;50.868;4.382;2024-02-21T06:25:56;11.90;;;6.53;;
20069;SDS011;10195;50.868;4.382;2024-02-21T06:28:21;11.93;;;5.90;;
20069;SDS011;10195;50.868;4.382;2024-02-21T06:30:47;12.27;;;6.23;;
20069;SDS011;10195;50.868;4.382;2024-02-21T06:33:13;13.57;;;5.60;;
20069;SDS011;10195;50.868;4.382;2024-02-21T06:35:38;15.17;;;6.43;;
20069;SDS011;10195;50.868;4.382;2024-02-21T06:38:06;10.80;;;6.07;;
20069;SDS011;10195;50.868;4.382;2024-02-21T06:40:32;12.13;;;6.90;;
20069;SDS011;10195;50.868;4.382;2024-02-21T06:43:03;12.80;;;7.37;;
20069;SDS011;10195;50.868;4.382;2024-02-21T06:45:29;14.53;;;8.20;;
20069;SDS011;10195;50.868;4.382;2024-02-21T06:47:55;14.80;;;7.60;;
20069;SDS011;10195;50.868;4.382;2024-02-21T06:50:20;15.53;;;8.63;;
20069;SDS011;10195;50.868;4.382;2024-02-21T06:52:46;15.30;;;8.17;;
20069;SDS011;10195;50.868;4.382;2024-02-21T06:55:12;14.73;;;8.50;;
20069;SDS011;10195;50.868;4.382;2024-02-21T06:57:37;15.30;;;8.90;;
20069;SDS011;10195;50.868;4.382;2024-02-21T07:00:03;16.20;;;8.83;;
20069;SDS011;10195;50.868;4.382;2024-02-21T07:02:33;18.20;;;9.00;;
20069;SDS011;10195;50.868;4.382;2024-02-21T07:04:59;18.47;;;9.03;;
20069;SDS011;10195;50.868;4.382;2024-02-21T07:07:24;17.80;;;8.60;;
20069;SDS011;10195;50.868;4.382;2024-02-21T07:09:50;16.70;;;8.77;;
20069;SDS011;10195;50.868;4.382;2024-02-21T07:12:16;15.27;;;10.20;;
20069;SDS011;10195;50.868;4.382;2024-02-21T07:14:42;25.80;;;9.80;;
20069;SDS011;10195;50.868;4.382;2024-02-21T07:17:10;21.80;;;10.67;;
20069;SDS011;10195;50.868;4.382;2024-02-21T07:19:35;21.17;;;12.60;;
20069;SDS011;10195;50.868;4.382;2024-02-21T07:22:01;20.67;;;12.33;;
20069;SDS011;10195;50.868;4.382;2024-02-21T07:24:27;23.13;;;12.43;;
20069;SDS011;10195;50.868;4.382;2024-02-21T07:26:52;17.53;;;12.23;;
20069;SDS011;10195;50.868;4.382;2024-02-21T07:29:18;19.93;;;11.97;;
20069;SDS011;10195;50.868;4.382;2024-02-21T07:31:44;17.80;;;10.97;;
20069;SDS011;10195;50.868;4.382;2024-02-21T07:34:10;19.93;;;11.23;;
20069;SDS011;10195;50.868;4.382;2024-02-21T07:36:36;15.70;;;9.50;;
20069;SDS011;10195;50.868;4.382;2024-02-21T07:39:04;17.47;;;9.90;;
20069;SDS011;10195;50.868;4.382;2024-02-21T07:41:30;23.60;;;10.13;;
20069;SDS011;10195;50.868;4.382;2024-02-21T07:43:56;21.90;;;10.07;;
20069;SDS011;10195;50.868;4.382;2024-02-21T07:46:22;17.07;;;9.70;;
20069;SDS011;10195;50.868;4.382;2024-02-21T07:48:47;17.97;;;9.27;;
20069;SDS011;10195;50.868;4.382;2024-02-21T07:51:14;14.37;;;8.17;;
20069;SDS011;10195;50.868;4.382;2024-02-21T07:53:41;13.63;;;8.17;;
20069;SDS011;10195;50.868;4.382;2024-02-21T07:56:10;11.77;;;6.13;;
20069;SDS011;10195;50.868;4.382;2024-02-21T07:58:39;14.73;;;6.67;;
20069;SDS011;10195;50.868;4.382;2024-02-21T08:01:05;14.37;;;6.20;;
20069;SDS011;10195;50.868;4.382;2024-02-21T08:03:31;14.30;;;5.97;;
20069;SDS011;10195;50.868;4.382;2024-02-21T08:05:56;12.17;;;6.33;;
20069;SDS011;10195;50.868;4.382;2024-02-21T08:08:22;10.70;;;6.57;;
20069;SDS011;10195;50.868;4.382;2024-02-21T08:10:48;21.40;;;6.43;;
20069;SDS011;10195;50.868;4.382;2024-02-21T08:13:14;12.00;;;5.70;;
20069;SDS011;10195;50.868;4.382;2024-02-21T08:15:40;10.87;;;5.13;;
20069;SDS011;10195;50.868;4.382;2024-02-21T08:18:07;11.23;;;5.37;;
20069;SDS011;10195;50.868;4.382;2024-02-21T08:20:33;13.83;;;5.17;;
20069;SDS011;10195;50.868;4.382;2024-02-21T08:22:59;14.83;;;5.70;;
20069;SDS011;10195;50.868;4.382;2024-02-21T08:25:25;8.17;;;4.00;;
20069;SDS011;10195;50.868;4.382;2024-02-21T08:27:50;14.57;;;5.60;;
20069;SDS011;10195;50.868;4.382;2024-02-21T08:30:19;8.63;;;5.20;;
20069;SDS011;10195;50.868;4.382;2024-02-21T08:32:45;11.13;;;5.40;;
20069;SDS011;10195;50.868;4.382;2024-02-21T08:35:10;11.43;;;5.47;;
20069;SDS011;10195;50.868;4.382;2024-02-21T08:37:37;12.87;;;5.53;;
20069;SDS011;10195;50.868;4.382;2024-02-21T08:40:08;15.47;;;5.33;;
20069;SDS011;10195;50.868;4.382;2024-02-21T08:42:35;12.20;;;5.33;;
20069;SDS011;10195;50.868;4.382;2024-02-21T08:45:02;17.90;;;5.60;;
20069;SDS011;10195;50.868;4.382;2024-02-21T08:47:28;14.33;;;5.77;;
20069;SDS011;10195;50.868;4.382;2024-02-21T08:49:54;9.53;;;5.00;;
20069;SDS011;10195;50.868;4.382;2024-02-21T08:52:19;13.07;;;4.50;;
20069;SDS011;10195;50.868;4.382;2024-02-21T08:54:45;13.43;;;4.70;;
20069;SDS011;10195;50.868;4.382;2024-02-21T08:57:13;13.97;;;5.27;;
20069;SDS011;10195;50.868;4.382;2024-02-21T08:59:39;10.00;;;4.73;;
20069;SDS011;10195;50.868;4.382;2024-02-21T09:02:05;12.20;;;5.17;;
20069;SDS011;10195;50.868;4.382;2024-02-21T09:04:32;10.27;;;4.40;;
20069;SDS011;10195;50.868;4.382;2024-02-21T09:06:58;11.77;;;4.50;;
20069;SDS011;10195;50.868;4.382;2024-02-21T09:09:24;9.17;;;4.83;;
20069;SDS011;10195;50.868;4.382;2024-02-21T09:11:50;13.77;;;4.63;;
20069;SDS011;10195;50.868;4.382;2024-02-21T09:14:15;8.77;;;4.40;;
20069;SDS011;10195;50.868;4.382;2024-02-21T09:16:42;12.30;;;4.10;;
20069;SDS011;10195;50.868;4.382;2024-02-21T09:19:09;9.90;;;4.20;;
20069;SDS011;10195;50.868;4.382;2024-02-21T09:21:36;8.37;;;4.47;;
20069;SDS011;10195;50.868;4.382;2024-02-21T09:24:02;12.80;;;4.33;;
20069;SDS011;10195;50.868;4.382;2024-02-21T09:26:28;10.63;;;4.40;;
20069;SDS011;10195;50.868;4.382;2024-02-21T09:28:54;12.57;;;4.23;;
20069;SDS011;10195;50.868;4.382;2024-02-21T09:31:19;10.73;;;4.07;;
20069;SDS011;10195;50.868;4.382;2024-02-21T09:33:45;13.80;;;4.33;;
20069;SDS011;10195;50.868;4.382;2024-02-21T09:36:11;8.17;;;2.90;;
20069;SDS011;10195;50.868;4.382;2024-02-21T09:38:36;12.40;;;4.20;;
20069;SDS011;10195;50.868;4.382;2024-02-21T09:41:11;7.40;;;3.77;;
20069;SDS011;10195;50.868;4.382;2024-02-21T09:43:44;11.17;;;3.80;;
20069;SDS011;10195;50.868;4.382;2024-02-21T09:46:16;10.13;;;3.87;;
20069;SDS011;10195;50.868;4.382;2024-02-21T09:51:26;8.03;;;3.87;;
20069;SDS011;10195;50.868;4.382;2024-02-21T09:53:57;10.80;;;3.80;;
20069;SDS011;10195;50.868;4.382;2024-02-21T09:56:23;8.73;;;3.80;;
20069;SDS011;10195;50.868;4.382;2024-02-21T09:58:48;9.23;;;3.70;;
20069;SDS011;10195;50.868;4.382;2024-02-21T10:01:14;9.83;;;3.60;;
20069;SDS011;10195;50.868;4.382;2024-02-21T10:03:41;10.63;;;3.80;;
20069;SDS011;10195;50.868;4.382;2024-02-21T10:06:08;11.70;;;3.83;;
20069;SDS011;10195;50.868;4.382;2024-02-21T10:08:34;7.17;;;3.67;;
20069;SDS011;10195;50.868;4.382;2024-02-21T10:11:00;5.60;;;2.57;;
20069;SDS011;10195;50.868;4.382;2024-02-21T10:13:27;11.50;;;3.67;;
20069;SDS011;10195;50.868;4.382;2024-02-21T10:16:05;6.00;;;3.10;;
20069;SDS011;10195;50.868;4.382;2024-02-21T10:18:32;11.93;;;3.67;;
20069;SDS011;10195;50.868;4.382;2024-02-21T10:21:05;10.47;;;3.97;;
20069;SDS011;10195;50.868;4.382;2024-02-21T10:23:41;11.73;;;3.60;;
20069;SDS011;10195;50.868;4.382;2024-02-21T10:26:24;10.10;;;3.67;;
20069;SDS011;10195;50.868;4.382;2024-02-21T10:28:50;14.17;;;3.93;;
20069;SDS011;10195;50.868;4.382;2024-02-21T10:31:23;13.33;;;3.43;;
20069;SDS011;10195;50.868;4.382;2024-02-21T10:33:54;12.37;;;3.47;;
20069;SDS011;10195;50.868;4.382;2024-02-21T10:36:21;5.90;;;2.10;;
20069;SDS011;10195;50.868;4.382;2024-02-21T10:38:49;14.60;;;4.20;;
20069;SDS011;10195;50.868;4.382;2024-02-21T10:41:15;11.33;;;3.73;;
20069;SDS011;10195;50.868;4.382;2024-02-21T10:43:45;10.73;;;3.13;;
20069;SDS011;10195;50.868;4.382;2024-02-21T10:46:22;10.70;;;4.17;;
20069;SDS011;10195;50.868;4.382;2024-02-21T10:49:10;12.50;;;3.80;;
20069;SDS011;10195;50.868;4.382;2024-02-21T10:51:50;10.30;;;4.03;;
20069;SDS011;10195;50.868;4.382;2024-02-21T10:54:24;9.90;;;3.33;;
20069;SDS011;10195;50.868;4.382;2024-02-21T10:56:53;12.33;;;3.30;;
20069;SDS011;10195;50.868;4.382;2024-02-21T10:59:23;8.03;;;3.03;;
20069;SDS011;10195;50.868;4.382;2024-02-21T11:01:51;8.57;;;3.20;;
20069;SDS011;10195;50.868;4.382;2024-02-21T11:04:17;7.30;;;3.00;;
20069;SDS011;10195;50.868;4.382;2024-02-21T11:06:43;10.30;;;3.80;;
20069;SDS011;10195;50.868;4.382;2024-02-21T11:09:10;7.93;;;3.17;;
20069;SDS011;10195;50.868;4.382;2024-02-21T11:11:40;7.57;;;3.57;;
20069;SDS011;10195;50.868;4.382;2024-02-21T11:14:07;11.23;;;3.60;;
20069;SDS011;10195;50.868;4.382;2024-02-21T11:16:42;7.00;;;3.37;;
20069;SDS011;10195;50.868;4.382;2024-02-21T11:19:08;8.23;;;3.00;;
20069;SDS011;10195;50.868;4.382;2024-02-21T11:21:43;7.63;;;3.40;;
20069;SDS011;10195;50.868;4.382;2024-02-21T11:24:09;8.47;;;3.67;;
20069;SDS011;10195;50.868;4.382;2024-02-21T11:26:36;9.27;;;3.23;;
20069;SDS011;10195;50.868;4.382;2024-02-21T11:29:03;14.80;;;3.60;;
20069;SDS011;10195;50.868;4.382;2024-02-21T11:31:44;11.07;;;2.77;;
20069;SDS011;10195;50.868;4.382;2024-02-21T11:34:12;6.37;;;2.90;;
20069;SDS011;10195;50.868;4.382;2024-02-21T11:36:48;5.13;;;2.73;;
20069;SDS011;10195;50.868;4.382;2024-02-21T11:39:33;8.87;;;3.33;;
20069;SDS011;10195;50.868;4.382;2024-02-21T11:42:04;10.00;;;3.20;;
20069;SDS011;10195;50.868;4.382;2024-02-21T11:44:34;7.80;;;3.70;;
20069;SDS011;10195;50.868;4.382;2024-02-21T11:47:03;13.13;;;4.23;;
20069;SDS011;10195;50.868;4.382;2024-02-21T11:49:29;9.83;;;3.27;;
20069;SDS011;10195;50.868;4.382;2024-02-21T11:52:02;11.67;;;3.17;;
20069;SDS011;10195;50.868;4.382;2024-02-21T11:54:32;7.43;;;3.60;;
20069;SDS011;10195;50.868;4.382;2024-02-21T11:56:59;10.53;;;3.63;;
20069;SDS011;10195;50.868;4.382;2024-02-21T11:59:25;10.33;;;4.03;;
20069;SDS011;10195;50.868;4.382;2024-02-21T12:01:52;10.93;;;3.87;;
20069;SDS011;10195;50.868;4.382;2024-02-21T12:04:18;14.27;;;4.00;;
20069;SDS011;10195;50.868;4.382;2024-02-21T12:06:45;8.57;;;3.60;;
20069;SDS011;10195;50.868;4.382;2024-02-21T12:09:17;14.57;;;3.70;;
20069;SDS011;10195;50.868;4.382;2024-02-21T12:11:56;10.10;;;4.07;;
20069;SDS011;10195;50.868;4.382;2024-02-21T12:14:27;10.77;;;3.57;;
20069;SDS011;10195;50.868;4.382;2024-02-21T12:16:53;14.17;;;4.57;;
20069;SDS011;10195;50.868;4.382;2024-02-21T12:19:20;10.63;;;4.23;;
20069;SDS011;10195;50.868;4.382;2024-02-21T12:21:47;11.80;;;3.87;;
20069;SDS011;10195;50.868;4.382;2024-02-21T12:24:24;8.03;;;3.67;;
20069;SDS011;10195;50.868;4.382;2024-02-21T12:26:52;8.57;;;3.87;;
20069;SDS011;10195;50.868;4.382;2024-02-21T12:29:22;8.87;;;3.90;;
20069;SDS011;10195;50.868;4.382;2024-02-21T12:31:50;8.40;;;3.97;;
20069;SDS011;10195;50.868;4.382;2024-02-21T12:34:16;8.90;;;3.50;;
20069;SDS011;10195;50.868;4.382;2024-02-21T12:36:42;7.43;;;3.50;;
20069;SDS011;10195;50.868;4.382;2024-02-21T12:39:11;15.47;;;4.30;;
20069;SDS011;10195;50.868;4.382;2024-02-21T12:41:37;10.07;;;3.90;;
20069;SDS011;10195;50.868;4.382;2024-02-21T12:44:12;12.73;;;4.27;;
20069;SDS011;10195;50.868;4.382;2024-02-21T12:46:38;8.80;;;2.70;;
20069;SDS011;10195;50.868;4.382;2024-02-21T12:49:05;9.10;;;3.90;;
20069;SDS011;10195;50.868;4.382;2024-02-21T12:51:32;12.77;;;4.43;;
20069;SDS011;10195;50.868;4.382;2024-02-21T12:53:58;11.70;;;4.20;;
20069;SDS011;10195;50.868;4.382;2024-02-21T12:56:24;7.57;;;4.03;;
20069;SDS011;10195;50.868;4.382;2024-02-21T12:58:55;12.83;;;4.57;;
20069;SDS011;10195;50.868;4.382;2024-02-21T13:01:21;9.83;;;4.67;;
20069;SDS011;10195;50.868;4.382;2024-02-21T13:03:47;12.43;;;4.00;;
20069;SDS011;10195;50.868;4.382;2024-02-21T13:06:13;8.60;;;4.00;;
20069;SDS011;10195;50.868;4.382;2024-02-21T13:08:39;8.90;;;2.90;;
20069;SDS011;10195;50.868;4.382;2024-02-21T13:11:06;7.97;;;4.07;;
20069;SDS011;10195;50.868;4.382;2024-02-21T13:13:31;9.50;;;4.13;;
20069;SDS011;10195;50.868;4.382;2024-02-21T13:15:57;12.00;;;4.63;;
20069;SDS011;10195;50.868;4.382;2024-02-21T13:18:24;11.07;;;4.10;;
20069;SDS011;10195;50.868;4.382;2024-02-21T13:20:49;8.60;;;4.50;;
20069;SDS011;10195;50.868;4.382;2024-02-21T13:23:15;12.37;;;4.63;;
20069;SDS011;10195;50.868;4.382;2024-02-21T13:25:40;10.87;;;3.90;;
20069;SDS011;10195;50.868;4.382;2024-02-21T13:28:06;15.30;;;4.40;;
20069;SDS011;10195;50.868;4.382;2024-02-21T13:30:33;13.37;;;4.30;;
20069;SDS011;10195;50.868;4.382;2024-02-21T13:32:59;10.97;;;3.83;;
20069;SDS011;10195;50.868;4.382;2024-02-21T13:35:25;11.73;;;4.23;;
20069;SDS011;10195;50.868;4.382;2024-02-21T13:37:50;8.27;;;3.93;;
20069;SDS011;10195;50.868;4.382;2024-02-21T13:40:16;12.50;;;4.70;;
20069;SDS011;10195;50.868;4.382;2024-02-21T13:42:42;7.80;;;3.90;;
20069;SDS011;10195;50.868;4.382;2024-02-21T13:45:08;6.87;;;4.03;;
20069;SDS011;10195;50.868;4.382;2024-02-21T13:47:34;11.07;;;4.57;;
20069;SDS011;10195;50.868;4.382;2024-02-21T13:50:04;16.53;;;4.50;;
20069;SDS011;10195;50.868;4.382;2024-02-21T13:52:34;17.90;;;4.67;;
20069;SDS011;10195;50.868;4.382;2024-02-21T13:54:59;12.93;;;4.67;;
20069;SDS011;10195;50.868;4.382;2024-02-21T13:57:25;10.17;;;3.83;;
20069;SDS011;10195;50.868;4.382;2024-02-21T13:59:51;13.23;;;4.23;;
20069;SDS011;10195;50.868;4.382;2024-02-21T14:02:16;10.20;;;3.70;;
20069;SDS011;10195;50.868;4.382;2024-02-21T14:04:43;11.27;;;4.57;;
20069;SDS011;10195;50.868;4.382;2024-02-21T14:07:08;11.23;;;4.63;;
20069;SDS011;10195;50.868;4.382;2024-02-21T14:09:34;6.90;;;3.83;;
20069;SDS011;10195;50.868;4.382;2024-02-21T14:12:00;8.27;;;4.83;;
20069;SDS011;10195;50.868;4.382;2024-02-21T14:14:25;9.03;;;4.40;;
20069;SDS011;10195;50.868;4.382;2024-02-21T14:16:51;8.33;;;3.83;;
20069;SDS011;10195;50.868;4.382;2024-02-21T14:19:17;9.97;;;4.33;;
20069;SDS011;10195;50.868;4.382;2024-02-21T14:21:43;9.97;;;5.27;;
20069;SDS011;10195;50.868;4.382;2024-02-21T14:24:09;10.53;;;4.43;;
20069;SDS011;10195;50.868;4.382;2024-02-21T14:26:36;7.37;;;4.00;;
20069;SDS011;10195;50.868;4.382;2024-02-21T14:29:02;12.40;;;4.90;;
20069;SDS011;10195;50.868;4.382;2024-02-21T14:31:29;13.17;;;4.23;;
20069;SDS011;10195;50.868;4.382;2024-02-21T14:33:57;9.93;;;4.60;;
20069;SDS011;10195;50.868;4.382;2024-02-21T14:36:23;12.13;;;4.97;;